Schuler, Canada
Current Conditions -  °F | °C
As of 10:00 PM on Saturday 22 Nov 2014 (Local Time) from CYXH Reporting Station
Overcast Overcast  
Wind Chill: 22°   Ceiling: 2000
Heat Index: 32°   Visibility: 9mi
Dew Point: 27°   Wind: 15mph
Humidity: 80%   Direction: 310°NW
Pressure: 29.55"   Gusts: 25mph
Location:  50.37°N, 110.09°W
Report Text: CYXH 230500Z AUTO 31013G22KT 9SM BKN020 OVC027 00/M03 A2955 RMK PRESRR SLP027
Loading
Personal Weather Stations






























Interactive Weather Map New forecast layout! Learn more

10-Day Weather Forecast

Advertisements
Track Severe Weather on mobile